Weather at Teesside International Airport

Public forecast

Using degrees Celsius for public forecast. Weather courtesy of forecast.io.

Current aviation weather report (METAR) for Teesside International Airport

Report is more than 6 hours old.

2022/11/14 15:20 (retrieved 2 years ago)

EGNV 141520Z 19005KT 0650 FG SCT001 OVC002 08/08 Q1006

Closest aviation forecast (TAF) to Teesside International Airport

Forecast is more than 12 hours old.

Closest forecast is Newcastle Airport, 33.0 nm (61.1 km) NNW.

2023/02/22 18:00 (retrieved 1 year ago)

TAF EGNT 221654Z 2218/2318 36010KT 9999 SCT020 PROB40 TEMPO 2218/2306 34015G28KT PROB30 TEMPO 2218/2221 7000 -SHRA BKN014 TEMPO 2221/2301 4000 SHRA RA BKN008 BECMG 2312/2315 27009KT